createdAt,value
2017-10-31T00:04:39.046Z,4
2017-10-31T00:14:38.998Z,4
2017-10-31T00:24:40.158Z,3
2017-10-31T00:34:40.041Z,2
2017-10-31T00:44:57.726Z,3
2017-10-31T00:54:40.113Z,3
2017-10-31T01:04:38.927Z,3
2017-10-31T01:14:39.083Z,3
2017-10-31T01:24:41.041Z,2
2017-10-31T01:34:40.090Z,2
2017-10-31T01:44:39.029Z,3
2017-10-31T01:54:39.059Z,2
2017-10-31T02:04:39.082Z,2
2017-10-31T02:14:41.073Z,2
2017-10-31T02:24:39.068Z,2
2017-10-31T02:34:39.139Z,2
2017-10-31T02:44:39.094Z,3
2017-10-31T02:54:40.139Z,3
2017-10-31T03:04:40.141Z,4
2017-10-31T03:14:39.201Z,4
2017-10-31T03:24:40.197Z,5
2017-10-31T03:34:39.135Z,5
2017-10-31T03:44:39.213Z,6
2017-10-31T04:01:08.094Z,6
2017-10-31T04:04:39.117Z,7
2017-10-31T04:14:40.170Z,6
2017-10-31T04:24:40.119Z,7
2017-10-31T04:34:39.170Z,7
2017-10-31T04:44:39.242Z,9
2017-10-31T04:54:39.248Z,8
2017-10-31T05:04:41.235Z,7
2017-10-31T05:14:39.234Z,8
2017-10-31T05:24:40.339Z,9
2017-10-31T05:34:39.234Z,9
2017-10-31T05:44:40.546Z,11
2017-10-31T05:54:40.343Z,9
2017-10-31T06:04:39.228Z,11
2017-10-31T06:14:39.343Z,10
2017-10-31T06:24:39.245Z,13
2017-10-31T06:34:39.381Z,12
2017-10-31T06:44:39.295Z,13
2017-10-31T06:54:39.336Z,13
2017-10-31T07:04:39.334Z,13
2017-10-31T07:14:39.354Z,13
2017-10-31T07:24:39.297Z,13
2017-10-31T07:34:39.222Z,11
2017-10-31T07:44:39.427Z,10
2017-10-31T07:54:39.387Z,11
2017-10-31T08:04:39.399Z,12
2017-10-31T08:14:39.353Z,12
2017-10-31T08:24:39.463Z,10
2017-10-31T08:34:40.445Z,11
2017-10-31T08:44:39.407Z,11
2017-10-31T08:54:39.409Z,10
2017-10-31T09:04:39.446Z,10
2017-10-31T09:14:39.433Z,11
2017-10-31T09:24:39.453Z,11
2017-10-31T09:34:40.462Z,11
2017-10-31T09:44:40.027Z,11
2017-10-31T09:54:40.509Z,11
2017-10-31T10:04:39.676Z,11
2017-10-31T10:14:39.959Z,11
2017-10-31T10:24:40.096Z,10
2017-10-31T10:34:39.778Z,12
2017-10-31T10:44:40.745Z,12
2017-10-31T10:54:40.273Z,11
2017-10-31T11:04:40.306Z,11
2017-10-31T11:14:39.997Z,12
2017-10-31T11:24:39.573Z,11
2017-10-31T11:34:39.689Z,10
2017-10-31T11:44:39.570Z,10
2017-10-31T11:54:39.567Z,10
2017-10-31T12:04:39.625Z,8
2017-10-31T12:14:39.679Z,8
2017-10-31T12:24:39.615Z,8
2017-10-31T12:34:39.630Z,8
2017-10-31T12:44:39.646Z,9
2017-10-31T12:54:40.692Z,8
2017-10-31T13:04:48.298Z,8
2017-10-31T13:14:39.664Z,8
2017-10-31T13:24:39.754Z,7
2017-10-31T13:34:39.701Z,8
2017-10-31T13:44:40.499Z,9
2017-10-31T13:56:04.002Z,8
2017-10-31T14:04:40.366Z,8
2017-10-31T14:14:40.632Z,7
2017-10-31T14:24:53.858Z,8
2017-10-31T14:34:44.747Z,7
2017-10-31T14:44:40.660Z,7
2017-10-31T14:54:41.054Z,8
2017-10-31T15:04:40.825Z,6
2017-10-31T15:14:45.784Z,6
2017-10-31T15:24:40.616Z,6
2017-10-31T15:34:40.535Z,8
2017-10-31T15:44:40.720Z,8
2017-10-31T15:54:40.676Z,8
2017-10-31T16:04:40.821Z,8
2017-10-31T16:14:40.653Z,7
2017-10-31T16:24:41.613Z,8
2017-10-31T16:34:40.855Z,8
2017-10-31T16:44:40.752Z,8
2017-10-31T16:54:40.766Z,8
2017-10-31T17:04:41.147Z,10
2017-10-31T17:14:41.021Z,11
2017-10-31T17:24:40.858Z,10
2017-10-31T17:34:40.794Z,10
2017-10-31T17:44:41.334Z,10
2017-10-31T17:54:40.881Z,11
2017-10-31T18:04:41.661Z,10
2017-10-31T18:14:40.797Z,12
2017-10-31T18:24:41.829Z,11
2017-10-31T18:45:15.749Z,12
2017-10-31T18:54:46.251Z,11
2017-10-31T19:04:42.897Z,10
2017-10-31T19:14:42.818Z,10
2017-10-31T19:24:47.087Z,10
2017-10-31T19:34:46.223Z,10
2017-10-31T19:44:41.064Z,9
2017-10-31T19:54:40.827Z,10
2017-10-31T20:04:40.919Z,10
2017-10-31T20:14:40.881Z,10
2017-10-31T20:24:40.805Z,9
2017-10-31T20:34:41.121Z,9
2017-10-31T20:44:40.836Z,11
2017-10-31T20:54:41.055Z,10
2017-10-31T21:04:40.923Z,10
2017-10-31T21:14:40.919Z,11
2017-10-31T21:24:40.967Z,11
2017-10-31T21:34:40.902Z,11
2017-10-31T21:44:43.085Z,12
2017-10-31T21:54:40.807Z,13
2017-10-31T22:04:40.894Z,15
2017-10-31T22:14:41.200Z,15
2017-10-31T22:24:41.161Z,14
2017-10-31T22:34:40.888Z,16
2017-10-31T22:44:40.860Z,16
2017-10-31T22:54:40.861Z,15
2017-10-31T23:04:40.930Z,16
2017-10-31T23:14:41.426Z,16
2017-10-31T23:24:41.693Z,17
2017-10-31T23:34:41.427Z,16
2017-10-31T23:44:41.113Z,15
2017-10-31T23:54:41.295Z,15
